createdAt,value
2022-11-09T00:00:52.451Z,12.75
2022-11-09T00:02:56.520Z,19.38
2022-11-09T00:04:59.156Z,13.55
2022-11-09T00:07:02.494Z,16.88
2022-11-09T00:09:08.154Z,19.92
2022-11-09T00:11:12.211Z,20.83
2022-11-09T00:13:14.864Z,16.33
2022-11-09T00:15:18.843Z,11.50
2022-11-09T00:17:21.440Z,12.52
2022-11-09T00:19:24.482Z,14.27
2022-11-09T00:21:27.156Z,16.05
2022-11-09T00:23:29.755Z,12.82
2022-11-09T00:25:32.419Z,15.48
2022-11-09T00:27:35.041Z,16.40
2022-11-09T00:29:40.306Z,12.88
2022-11-09T00:31:44.246Z,13.88
2022-11-09T00:33:49.126Z,17.48
2022-11-09T00:35:51.704Z,15.90
2022-11-09T00:37:55.267Z,14.88
2022-11-09T00:39:59.156Z,15.50
2022-11-09T00:42:01.727Z,13.82
2022-11-09T00:44:04.588Z,11.27
2022-11-09T00:46:07.452Z,12.43
2022-11-09T00:48:11.645Z,14.23
2022-11-09T00:50:14.229Z,15.98
2022-11-09T00:52:16.846Z,17.55
2022-11-09T00:54:19.441Z,12.45
2022-11-09T00:56:22.714Z,12.80
2022-11-09T00:58:26.122Z,13.00
2022-11-09T01:00:28.761Z,15.18
2022-11-09T01:02:31.348Z,14.75
2022-11-09T01:04:35.449Z,10.60
2022-11-09T01:06:38.078Z,13.68
2022-11-09T01:08:40.664Z,10.43
2022-11-09T01:10:44.506Z,16.38
2022-11-09T01:12:47.077Z,12.38
2022-11-09T01:14:49.680Z,14.02
2022-11-09T01:16:52.491Z,12.10
2022-11-09T01:18:56.397Z,14.23
2022-11-09T01:21:00.385Z,16.38
2022-11-09T01:23:02.970Z,12.45
2022-11-09T01:25:06.387Z,11.07
2022-11-09T01:27:09.033Z,11.15
2022-11-09T01:29:11.601Z,13.25
2022-11-09T01:31:16.061Z,12.40
2022-11-09T01:33:18.942Z,11.68
2022-11-09T01:35:21.743Z,13.93
2022-11-09T01:37:25.720Z,10.57
2022-11-09T01:39:28.300Z,14.50
2022-11-09T01:41:30.921Z,10.95
2022-11-09T01:43:33.871Z,10.80
2022-11-09T01:45:36.546Z,10.73
2022-11-09T01:47:39.159Z,13.73
2022-11-09T01:49:46.940Z,11.45
2022-11-09T01:51:54.922Z,12.63
2022-11-09T01:54:04.864Z,14.98
2022-11-09T01:56:11.323Z,11.93
2022-11-09T01:58:17.974Z,12.57
2022-11-09T02:00:21.290Z,11.82
2022-11-09T02:02:24.355Z,12.00
2022-11-09T02:04:32.014Z,14.15
2022-11-09T02:06:35.238Z,12.57
2022-11-09T02:08:38.408Z,13.18
2022-11-09T02:10:48.341Z,12.15
2022-11-09T02:12:51.076Z,15.35
2022-11-09T02:14:55.843Z,16.55
2022-11-09T02:16:58.478Z,19.27
2022-11-09T02:19:01.859Z,13.00
2022-11-09T02:21:06.625Z,12.38
2022-11-09T02:23:09.214Z,12.75
2022-11-09T02:25:14.934Z,11.88
2022-11-09T02:27:17.987Z,13.05
2022-11-09T02:29:24.719Z,15.55
2022-11-09T02:31:32.131Z,14.77
2022-11-09T02:33:43.664Z,17.10
2022-11-09T02:35:46.364Z,20.27
2022-11-09T02:37:51.626Z,16.08
2022-11-09T02:39:54.713Z,18.45
2022-11-09T02:42:03.101Z,14.90
2022-11-09T02:44:06.674Z,13.40
2022-11-09T02:46:09.296Z,16.63
2022-11-09T02:48:11.948Z,17.23
2022-11-09T02:50:14.532Z,15.07
2022-11-09T02:52:17.430Z,12.73
2022-11-09T02:54:21.453Z,18.00
2022-11-09T02:56:24.221Z,12.90
2022-11-09T02:58:26.775Z,14.57
2022-11-09T03:00:29.383Z,12.63
2022-11-09T03:02:32.018Z,16.70
2022-11-09T03:04:34.653Z,14.68
2022-11-09T03:06:37.455Z,11.80
2022-11-09T03:08:40.158Z,13.52
2022-11-09T03:10:44.146Z,11.45
2022-11-09T03:12:46.768Z,13.35
2022-11-09T03:14:49.339Z,13.13
2022-11-09T03:16:51.931Z,13.70
2022-11-09T03:18:54.813Z,15.68
2022-11-09T03:21:02.615Z,14.18
2022-11-09T03:23:05.245Z,14.15
2022-11-09T03:25:08.778Z,16.55
2022-11-09T03:27:12.860Z,13.88
2022-11-09T03:29:15.478Z,15.55
2022-11-09T03:31:18.083Z,15.50
2022-11-09T03:33:21.164Z,17.83
2022-11-09T03:35:23.955Z,18.88
2022-11-09T03:37:26.615Z,13.13
2022-11-09T03:39:29.332Z,20.98
2022-11-09T03:41:31.984Z,16.17
2022-11-09T03:43:35.921Z,14.15
2022-11-09T03:45:38.566Z,14.38
2022-11-09T03:47:41.725Z,11.13
2022-11-09T03:49:44.561Z,15.55
2022-11-09T03:51:47.151Z,15.60
2022-11-09T03:53:49.781Z,14.77
2022-11-09T03:55:52.389Z,17.15
2022-11-09T03:57:55.512Z,16.40
2022-11-09T04:00:01.827Z,15.52
2022-11-09T04:02:04.441Z,11.98
2022-11-09T04:04:07.058Z,16.92
2022-11-09T04:06:09.667Z,17.60
2022-11-09T04:08:12.330Z,16.20
2022-11-09T04:10:14.968Z,17.25
2022-11-09T04:12:17.583Z,17.60
2022-11-09T04:14:20.183Z,18.70
2022-11-09T04:16:24.173Z,23.42
2022-11-09T04:18:26.797Z,21.73
2022-11-09T04:20:31.127Z,24.80
2022-11-09T04:22:33.812Z,32.80
2022-11-09T04:24:36.409Z,27.88
2022-11-09T04:26:39.016Z,34.15
2022-11-09T04:28:41.575Z,31.55
2022-11-09T04:30:44.204Z,29.25
2022-11-09T04:32:48.153Z,32.38
2022-11-09T04:34:50.811Z,34.38
2022-11-09T04:36:53.460Z,30.67
2022-11-09T04:38:56.078Z,26.23
2022-11-09T04:41:01.484Z,28.88
2022-11-09T04:43:06.101Z,30.80
2022-11-09T04:45:09.306Z,23.42
2022-11-09T04:47:11.925Z,28.08
2022-11-09T04:49:15.899Z,22.40
2022-11-09T04:51:18.662Z,18.98
2022-11-09T04:53:21.685Z,16.42
2022-11-09T04:55:24.605Z,19.10
2022-11-09T04:57:27.201Z,17.30
2022-11-09T04:59:29.777Z,18.52
2022-11-09T05:01:32.458Z,14.38
2022-11-09T05:03:35.512Z,10.93
2022-11-09T05:05:44.082Z,14.73
2022-11-09T05:07:49.707Z,14.63
2022-11-09T05:09:52.319Z,11.48
2022-11-09T05:11:54.938Z,13.43
2022-11-09T05:13:57.513Z,10.60
2022-11-09T05:16:01.739Z,11.60
2022-11-09T05:18:06.736Z,13.60
2022-11-09T05:20:10.412Z,10.55
2022-11-09T05:22:34.090Z,9.88
2022-11-09T05:24:36.693Z,15.13
2022-11-09T05:26:43.203Z,13.57
2022-11-09T05:28:45.904Z,10.00
2022-11-09T05:30:48.511Z,10.35
2022-11-09T05:32:51.222Z,11.77
2022-11-09T05:34:53.818Z,10.32
2022-11-09T05:37:02.236Z,10.02
2022-11-09T05:39:07.447Z,9.90
2022-11-09T05:41:10.038Z,15.00
2022-11-09T05:43:12.656Z,12.07
2022-11-09T05:47:40.410Z,9.20
2022-11-09T05:49:45.811Z,9.45
2022-11-09T05:51:48.375Z,8.45
2022-11-09T05:53:50.982Z,7.35
2022-11-09T05:55:55.033Z,6.63
2022-11-09T05:57:57.689Z,12.93
2022-11-09T06:00:00.365Z,9.02
2022-11-09T06:02:03.185Z,8.02
2022-11-09T06:04:06.196Z,8.05
2022-11-09T06:06:09.664Z,9.10
2022-11-09T06:08:14.677Z,8.45
2022-11-09T06:10:17.697Z,7.60
2022-11-09T06:12:21.715Z,14.40
2022-11-09T06:14:24.318Z,10.23
2022-11-09T06:16:26.938Z,7.05
2022-11-09T06:18:30.823Z,4.68
2022-11-09T06:20:34.140Z,7.38
2022-11-09T06:22:36.795Z,6.38
2022-11-09T06:24:39.435Z,6.00
2022-11-09T06:26:42.096Z,8.95
2022-11-09T06:28:46.043Z,5.85
2022-11-09T06:30:48.649Z,5.00
2022-11-09T06:32:51.215Z,8.50
2022-11-09T06:34:53.833Z,8.38
2022-11-09T06:36:56.431Z,6.85
2022-11-09T06:38:59.034Z,4.70
2022-11-09T06:41:02.023Z,4.70
2022-11-09T06:43:05.145Z,6.35
2022-11-09T06:45:10.487Z,4.07
2022-11-09T06:47:13.080Z,4.72
2022-11-09T06:49:15.667Z,3.72
2022-11-09T06:51:18.324Z,5.68
2022-11-09T06:53:21.469Z,6.68
2022-11-09T06:55:24.370Z,7.85
2022-11-09T06:57:26.994Z,5.30
2022-11-09T06:59:29.808Z,9.23
2022-11-09T07:01:33.789Z,8.63
2022-11-09T07:03:36.412Z,10.35
2022-11-09T07:05:39.752Z,7.63
2022-11-09T07:07:42.395Z,7.10
2022-11-09T07:09:45.029Z,9.15
2022-11-09T07:11:49.708Z,9.10
2022-11-09T07:13:57.082Z,7.07
2022-11-09T07:16:00.195Z,8.27
2022-11-09T07:18:06.557Z,9.07
2022-11-09T07:20:10.429Z,7.03
2022-11-09T07:22:13.058Z,11.45
2022-11-09T07:24:15.655Z,12.45
2022-11-09T07:26:18.992Z,7.97
2022-11-09T07:28:21.619Z,8.90
2022-11-09T07:30:24.210Z,8.63
2022-11-09T07:32:53.751Z,6.82
2022-11-09T07:34:50.647Z,8.73
2022-11-09T07:36:54.828Z,7.15
2022-11-09T07:38:57.449Z,9.23
2022-11-09T07:41:01.098Z,9.98
2022-11-09T07:43:05.317Z,14.60
2022-11-09T07:45:08.809Z,5.43
2022-11-09T07:47:17.232Z,8.52
2022-11-09T07:49:20.866Z,6.97
2022-11-09T07:51:24.795Z,11.95
2022-11-09T07:53:27.659Z,11.98
2022-11-09T07:55:32.035Z,10.02
2022-11-09T07:57:34.606Z,11.10
2022-11-09T07:59:37.394Z,9.27
2022-11-09T08:01:40.043Z,13.70
2022-11-09T08:03:42.663Z,13.68
2022-11-09T08:05:45.572Z,20.83
2022-11-09T08:07:49.643Z,18.13
2022-11-09T08:09:52.209Z,12.60
2022-11-09T08:11:54.824Z,11.38
2022-11-09T08:13:57.563Z,11.57
2022-11-09T08:16:02.142Z,10.00
2022-11-09T08:18:06.683Z,10.30
2022-11-09T08:20:10.233Z,9.93
2022-11-09T08:22:12.852Z,11.32
2022-11-09T08:24:16.904Z,12.68
2022-11-09T08:26:19.653Z,12.43
2022-11-09T08:28:22.867Z,14.07
2022-11-09T08:30:26.118Z,15.45
2022-11-09T08:32:28.974Z,12.45
2022-11-09T08:34:31.587Z,14.52
2022-11-09T08:36:36.145Z,19.40
2022-11-09T08:38:39.326Z,12.70
2022-11-09T08:40:43.347Z,13.13
2022-11-09T08:42:46.359Z,15.38
2022-11-09T08:44:48.915Z,15.00
2022-11-09T08:46:51.526Z,10.45
2022-11-09T08:48:54.117Z,9.35
2022-11-09T08:50:59.119Z,10.55
2022-11-09T08:53:02.411Z,10.85
2022-11-09T08:55:08.646Z,9.18
2022-11-09T08:57:13.015Z,11.65
2022-11-09T08:59:15.578Z,8.82
2022-11-09T09:01:18.162Z,9.82
2022-11-09T09:03:20.857Z,9.65
2022-11-09T09:05:24.093Z,7.88
2022-11-09T09:07:26.777Z,10.15
2022-11-09T09:09:29.481Z,6.55
2022-11-09T09:11:32.152Z,10.07
2022-11-09T09:13:40.539Z,6.38
2022-11-09T09:15:45.818Z,9.52
2022-11-09T09:17:50.966Z,6.28
2022-11-09T09:19:53.813Z,8.15
2022-11-09T09:21:56.870Z,6.85
2022-11-09T09:23:59.493Z,3.60
2022-11-09T09:26:02.103Z,2.85
2022-11-09T09:28:04.931Z,3.00
2022-11-09T09:30:10.255Z,2.65
2022-11-09T09:32:12.958Z,5.32
2022-11-09T09:34:15.605Z,5.22
2022-11-09T09:36:19.997Z,5.55
2022-11-09T09:38:22.872Z,4.25
2022-11-09T09:40:30.827Z,5.32
2022-11-09T09:42:37.176Z,4.47
2022-11-09T09:44:44.396Z,4.78
2022-11-09T09:46:54.324Z,6.03
2022-11-09T09:49:02.307Z,6.10
2022-11-09T09:51:10.971Z,5.88
2022-11-09T09:53:26.563Z,3.42
2022-11-09T09:55:37.782Z,4.60
2022-11-09T09:57:42.418Z,4.10
2022-11-09T09:59:50.517Z,5.05
2022-11-09T10:01:57.335Z,3.80
2022-11-09T10:04:00.064Z,5.07
2022-11-09T10:06:13.995Z,7.65
2022-11-09T10:08:25.942Z,5.55
2022-11-09T10:10:44.397Z,5.68
2022-11-09T10:13:04.595Z,5.10
2022-11-09T10:15:22.280Z,4.70
2022-11-09T10:17:38.944Z,6.22
2022-11-09T10:19:55.028Z,4.53
2022-11-09T10:22:06.641Z,7.32
2022-11-09T10:24:23.364Z,8.23
2022-11-09T10:26:38.800Z,6.55
2022-11-09T10:29:13.830Z,10.00
2022-11-09T10:31:16.560Z,11.75
2022-11-09T10:33:21.876Z,6.35
2022-11-09T10:35:30.361Z,8.10
2022-11-09T10:37:38.120Z,7.68
2022-11-09T10:39:45.303Z,8.35
2022-11-09T10:41:48.117Z,8.30
2022-11-09T10:43:50.693Z,8.95
2022-11-09T10:46:04.685Z,6.53
2022-11-09T10:48:09.293Z,7.97
2022-11-09T10:50:23.778Z,7.35
2022-11-09T10:52:44.306Z,6.03
2022-11-09T10:54:49.723Z,6.75
2022-11-09T10:57:07.226Z,5.00
2022-11-09T10:59:37.448Z,6.18
2022-11-09T11:01:40.153Z,5.03
2022-11-09T11:03:44.890Z,6.18
2022-11-09T11:05:59.329Z,4.55
2022-11-09T11:08:25.472Z,6.18
2022-11-09T11:10:28.074Z,7.82
2022-11-09T11:12:30.677Z,9.00
2022-11-09T11:14:35.189Z,12.00
2022-11-09T11:16:39.482Z,7.20
2022-11-09T11:18:46.570Z,5.68
2022-11-09T11:21:06.460Z,6.40
2022-11-09T11:23:13.996Z,5.15
2022-11-09T11:25:20.612Z,6.40
2022-11-09T11:27:28.379Z,7.45
2022-11-09T11:29:41.757Z,8.63
2022-11-09T11:31:44.381Z,6.88
2022-11-09T11:33:47.580Z,5.63
2022-11-09T11:35:59.231Z,7.20
2022-11-09T11:38:15.364Z,7.63
2022-11-09T11:40:23.775Z,5.80
2022-11-09T11:42:37.923Z,6.65
2022-11-09T11:45:18.605Z,4.68
2022-11-09T11:47:26.862Z,8.85
2022-11-09T11:50:23.376Z,7.93
2022-11-09T11:52:37.561Z,5.15
2022-11-09T11:55:04.629Z,6.07
2022-11-09T11:57:27.858Z,4.00
2022-11-09T11:59:48.029Z,6.07
2022-11-09T12:02:09.038Z,4.43
2022-11-09T12:04:32.355Z,6.68
2022-11-09T12:06:58.072Z,7.03
2022-11-09T12:09:12.827Z,7.55
2022-11-09T12:11:29.004Z,6.75
2022-11-09T12:13:52.565Z,5.75
2022-11-09T12:16:04.632Z,5.70
2022-11-09T12:18:17.841Z,4.88
2022-11-09T12:20:28.255Z,3.95
2022-11-09T12:22:39.633Z,5.07
2022-11-09T12:24:54.640Z,4.72
2022-11-09T12:29:42.727Z,3.55
2022-11-09T12:31:55.631Z,2.42
2022-11-09T12:34:03.048Z,2.35
2022-11-09T12:36:13.498Z,3.13
2022-11-09T12:38:23.798Z,16.90
2022-11-09T12:40:30.988Z,30.85
2022-11-09T12:42:39.436Z,13.13
2022-11-09T12:44:47.534Z,4.95
2022-11-09T12:46:53.384Z,3.33
2022-11-09T12:48:59.436Z,5.35
2022-11-09T12:51:04.257Z,3.13
2022-11-09T12:53:07.939Z,3.85
2022-11-09T12:55:15.583Z,2.67
2022-11-09T12:57:23.937Z,2.63
2022-11-09T12:59:38.055Z,2.80
2022-11-09T13:01:49.672Z,3.35
2022-11-09T13:03:58.260Z,1.60
2022-11-09T13:06:13.759Z,2.33
2022-11-09T13:08:21.025Z,2.03
2022-11-09T13:10:28.035Z,1.85
2022-11-09T13:12:38.580Z,1.35
2022-11-09T13:14:42.069Z,2.95
2022-11-09T13:16:44.811Z,3.28
2022-11-09T13:18:51.287Z,3.97
2022-11-09T13:20:56.868Z,5.90
2022-11-09T13:23:02.189Z,6.78
2022-11-09T13:25:27.069Z,6.75
2022-11-09T13:27:43.507Z,2.72
2022-11-09T13:29:55.277Z,3.03
2022-11-09T13:32:33.555Z,5.63
2022-11-09T13:34:47.827Z,2.92
2022-11-09T13:37:23.091Z,4.85
2022-11-09T13:39:33.581Z,5.07
2022-11-09T13:41:43.968Z,4.88
2022-11-09T13:43:48.070Z,4.60
2022-11-09T13:45:52.671Z,3.60
2022-11-09T13:47:56.175Z,3.58
2022-11-09T13:49:58.948Z,8.77
2022-11-09T13:52:01.550Z,5.00
2022-11-09T13:54:05.326Z,3.60
2022-11-09T13:56:20.030Z,3.17
2022-11-09T13:58:29.770Z,6.05
2022-11-09T14:00:33.776Z,3.83
2022-11-09T14:02:36.398Z,2.17
2022-11-09T14:04:41.286Z,3.65
2022-11-09T14:06:44.061Z,1.98
2022-11-09T14:08:48.101Z,6.47
2022-11-09T14:11:09.967Z,4.18
2022-11-09T14:13:43.417Z,5.05
2022-11-09T14:15:54.927Z,3.20
2022-11-09T14:18:08.045Z,3.47
2022-11-09T14:20:21.919Z,2.78
2022-11-09T14:22:24.695Z,4.35
2022-11-09T14:24:30.856Z,5.75
2022-11-09T14:26:33.493Z,2.80
2022-11-09T14:28:37.252Z,3.58
2022-11-09T14:30:46.145Z,3.85
2022-11-09T14:32:54.037Z,3.97
2022-11-09T14:35:12.204Z,5.55
2022-11-09T14:37:15.709Z,3.33
2022-11-09T14:39:27.414Z,3.42
2022-11-09T14:41:31.064Z,4.13
2022-11-09T14:43:40.862Z,4.57
2022-11-09T14:45:49.921Z,3.85
2022-11-09T14:47:57.020Z,6.32
2022-11-09T14:50:00.191Z,7.65
2022-11-09T14:52:03.787Z,6.57
2022-11-09T14:54:10.047Z,9.23
2022-11-09T14:56:16.564Z,4.20
2022-11-09T14:58:20.962Z,4.97
2022-11-09T15:00:30.516Z,3.70
2022-11-09T15:02:37.333Z,3.25
2022-11-09T15:04:55.356Z,3.53
2022-11-09T15:07:01.132Z,4.53
2022-11-09T15:09:08.441Z,5.03
2022-11-09T15:11:11.186Z,7.75
2022-11-09T15:13:13.802Z,6.25
2022-11-09T15:15:20.857Z,8.50
2022-11-09T15:17:26.541Z,7.95
2022-11-09T15:19:31.614Z,4.05
2022-11-09T15:21:38.792Z,4.70
2022-11-09T15:23:43.255Z,7.15
2022-11-09T15:25:56.081Z,6.28
2022-11-09T15:28:03.489Z,10.15
2022-11-09T15:30:07.083Z,9.57
2022-11-09T15:32:19.514Z,10.40
2022-11-09T15:34:24.589Z,17.25
2022-11-09T15:36:31.399Z,21.52
2022-11-09T15:38:39.204Z,12.38
2022-11-09T15:40:41.884Z,20.33
2022-11-09T15:42:46.383Z,11.80
2022-11-09T15:44:53.312Z,12.00
2022-11-09T15:46:56.011Z,10.50
2022-11-09T15:49:03.403Z,13.82
2022-11-09T15:51:06.123Z,15.50
2022-11-09T15:53:10.441Z,14.32
2022-11-09T15:55:15.221Z,7.57
2022-11-09T15:57:19.974Z,13.52
2022-11-09T15:59:24.676Z,15.15
2022-11-09T16:01:27.780Z,15.55
2022-11-09T16:03:30.389Z,16.02
2022-11-09T16:05:33.044Z,14.95
2022-11-09T16:07:35.801Z,12.32
2022-11-09T16:09:40.530Z,12.60
2022-11-09T16:11:44.532Z,13.27
2022-11-09T16:13:47.116Z,10.48
2022-11-09T16:15:49.742Z,11.98
2022-11-09T16:17:52.611Z,13.77
2022-11-09T16:19:55.234Z,9.75
2022-11-09T16:21:58.502Z,14.18
2022-11-09T16:24:01.113Z,12.23
2022-11-09T16:26:08.430Z,10.68
2022-11-09T16:28:12.468Z,13.57
2022-11-09T16:30:15.427Z,13.55
2022-11-09T16:32:18.059Z,13.65
2022-11-09T16:34:21.146Z,13.52
2022-11-09T16:36:26.306Z,14.65
2022-11-09T16:38:31.340Z,10.50
2022-11-09T16:40:34.573Z,9.32
2022-11-09T16:42:38.074Z,10.65
2022-11-09T16:44:44.290Z,15.90
2022-11-09T16:46:48.771Z,11.25
2022-11-09T16:48:51.518Z,14.95
2022-11-09T16:50:54.451Z,11.25
2022-11-09T16:52:57.191Z,8.95
2022-11-09T16:54:59.794Z,8.68
2022-11-09T16:57:02.614Z,9.48
2022-11-09T16:59:05.273Z,7.97
2022-11-09T17:01:12.897Z,10.60
2022-11-09T17:03:16.081Z,9.00
2022-11-09T17:05:18.760Z,8.38
2022-11-09T17:07:21.927Z,8.70
2022-11-09T17:09:24.511Z,8.93
2022-11-09T17:11:27.138Z,9.18
2022-11-09T17:13:29.772Z,7.20
2022-11-09T17:15:32.408Z,5.03
2022-11-09T17:17:36.351Z,4.03
2022-11-09T17:19:38.985Z,5.70
2022-11-09T17:21:41.624Z,4.28
2022-11-09T17:23:44.656Z,3.67
2022-11-09T17:25:55.545Z,5.45
2022-11-09T17:27:58.134Z,5.22
2022-11-09T17:30:00.683Z,7.28
2022-11-09T17:32:03.306Z,7.80
2022-11-09T17:34:07.388Z,5.35
2022-11-09T17:36:12.278Z,8.00
2022-11-09T17:38:15.151Z,5.55
2022-11-09T17:40:19.930Z,6.45
2022-11-09T17:42:22.575Z,5.55
2022-11-09T17:44:25.174Z,5.88
2022-11-09T17:46:27.804Z,5.75
2022-11-09T17:48:30.399Z,7.75
2022-11-09T17:50:34.319Z,7.35
2022-11-09T17:52:36.970Z,13.32
2022-11-09T17:54:39.579Z,14.23
2022-11-09T17:56:42.236Z,14.23
2022-11-09T17:58:45.717Z,18.17
2022-11-09T18:00:48.558Z,15.73
2022-11-09T18:02:55.430Z,9.93
2022-11-09T18:04:58.151Z,7.10
2022-11-09T18:07:02.232Z,6.35
2022-11-09T18:11:29.904Z,12.35
2022-11-09T18:13:32.866Z,8.88
2022-11-09T18:15:37.731Z,13.93
2022-11-09T18:17:40.369Z,14.23
2022-11-09T18:19:42.935Z,14.25
2022-11-09T18:21:45.918Z,10.80
2022-11-09T18:23:49.942Z,11.27
2022-11-09T18:25:58.856Z,10.48
2022-11-09T18:28:01.428Z,7.78
2022-11-09T18:30:04.588Z,6.80
2022-11-09T18:32:07.196Z,6.00
2022-11-09T18:34:11.298Z,6.90
2022-11-09T18:36:15.998Z,4.85
2022-11-09T18:38:20.211Z,4.57
2022-11-09T18:40:24.461Z,5.55
2022-11-09T18:42:27.117Z,7.00
2022-11-09T18:44:29.711Z,3.95
2022-11-09T18:46:35.362Z,4.82
2022-11-09T18:48:38.485Z,5.65
2022-11-09T18:50:41.044Z,6.60
2022-11-09T18:52:43.716Z,7.22
2022-11-09T18:54:46.432Z,6.32
2022-11-09T18:56:50.436Z,5.35
2022-11-09T18:58:54.671Z,5.75
2022-11-09T19:01:01.480Z,7.07
2022-11-09T19:03:04.551Z,6.35
2022-11-09T19:05:08.340Z,10.30
2022-11-09T19:07:10.936Z,6.32
2022-11-09T19:09:29.842Z,8.40
2022-11-09T19:11:33.272Z,9.10
2022-11-09T19:13:37.201Z,8.00
2022-11-09T19:15:43.306Z,11.77
2022-11-09T19:17:45.935Z,7.50
2022-11-09T19:19:48.582Z,10.20
2022-11-09T19:21:53.481Z,7.15
2022-11-09T19:23:56.667Z,7.82
2022-11-09T19:26:01.973Z,8.82
2022-11-09T19:28:04.677Z,11.75
2022-11-09T19:30:10.135Z,8.43
2022-11-09T19:32:12.890Z,12.10
2022-11-09T19:34:17.655Z,14.23
2022-11-09T19:36:30.060Z,16.75
2022-11-09T19:38:33.115Z,16.98
2022-11-09T19:40:39.842Z,15.90
2022-11-09T19:42:42.870Z,15.27
2022-11-09T19:44:45.704Z,14.98
2022-11-09T19:46:49.646Z,13.73
2022-11-09T19:48:52.276Z,14.77
2022-11-09T19:50:54.847Z,18.77
2022-11-09T19:52:57.509Z,12.57
2022-11-09T19:55:00.127Z,15.50
2022-11-09T19:57:02.740Z,13.32
2022-11-09T19:59:05.787Z,15.70
2022-11-09T20:01:11.107Z,13.52
2022-11-09T20:03:15.111Z,12.48
2022-11-09T20:05:17.724Z,11.10
2022-11-09T20:07:20.521Z,10.68
2022-11-09T20:09:23.099Z,8.88
2022-11-09T20:11:45.003Z,10.98
2022-11-09T20:13:47.561Z,7.65
2022-11-09T20:15:50.250Z,7.00
2022-11-09T20:17:52.842Z,10.30
2022-11-09T20:19:59.539Z,9.05
2022-11-09T20:22:02.147Z,6.68
2022-11-09T20:24:06.364Z,9.57
2022-11-09T20:26:11.721Z,7.53
2022-11-09T20:28:14.406Z,10.50
2022-11-09T20:30:17.188Z,9.57
2022-11-09T20:32:21.663Z,7.85
2022-11-09T20:34:29.558Z,7.22
2022-11-09T20:36:34.696Z,10.05
2022-11-09T20:38:37.352Z,11.27
2022-11-09T20:40:39.918Z,11.20
2022-11-09T20:42:42.597Z,6.25
2022-11-09T20:44:45.262Z,11.40
2022-11-09T20:46:47.901Z,6.65
2022-11-09T20:48:54.486Z,7.40
2022-11-09T20:51:03.133Z,9.73
2022-11-09T20:53:07.227Z,9.65
2022-11-09T20:55:10.682Z,8.93
2022-11-09T20:57:13.704Z,6.35
2022-11-09T20:59:16.361Z,7.72
2022-11-09T21:01:20.854Z,11.00
2022-11-09T21:03:25.525Z,10.15
2022-11-09T21:05:28.107Z,8.93
2022-11-09T21:07:30.676Z,6.97
2022-11-09T21:09:34.741Z,9.73
2022-11-09T21:11:57.408Z,9.07
2022-11-09T21:14:00.009Z,8.95
2022-11-09T21:16:07.069Z,10.18
2022-11-09T21:18:09.755Z,7.85
2022-11-09T21:20:13.108Z,9.13
2022-11-09T21:22:15.857Z,9.15
2022-11-09T21:24:36.165Z,9.95
2022-11-09T21:26:57.393Z,13.55
2022-11-09T21:29:17.772Z,13.93
2022-11-09T21:31:20.450Z,13.63
2022-11-09T21:33:23.058Z,12.35
2022-11-09T21:35:26.338Z,10.60
2022-11-09T21:37:29.009Z,10.55
2022-11-09T21:39:31.627Z,12.82
2022-11-09T21:41:40.316Z,13.40
2022-11-09T21:43:44.260Z,13.73
2022-11-09T21:45:50.719Z,12.80
2022-11-09T21:47:55.318Z,12.77
2022-11-09T21:49:57.890Z,13.43
2022-11-09T21:52:01.135Z,12.27
2022-11-09T21:54:04.832Z,15.10
2022-11-09T21:56:08.307Z,10.85
2022-11-09T21:58:10.885Z,9.05
2022-11-09T22:00:17.098Z,7.85
2022-11-09T22:02:19.695Z,7.68
2022-11-09T22:04:22.279Z,9.77
2022-11-09T22:06:25.609Z,8.65
2022-11-09T22:08:28.430Z,7.63
2022-11-09T22:10:31.089Z,6.57
2022-11-09T22:12:51.162Z,5.25
2022-11-09T22:15:11.791Z,3.10
2022-11-09T22:17:15.762Z,4.53
2022-11-09T22:19:35.862Z,3.42
2022-11-09T22:21:38.911Z,1.17
2022-11-09T22:23:41.702Z,1.90
2022-11-09T22:25:47.914Z,3.13
2022-11-09T22:27:50.762Z,2.58
2022-11-09T22:29:53.352Z,3.47
2022-11-09T22:31:56.657Z,6.38
2022-11-09T22:34:00.675Z,4.65
2022-11-09T22:36:06.028Z,7.00
2022-11-09T22:38:08.839Z,6.28
2022-11-09T22:40:12.039Z,8.88
2022-11-09T22:42:14.779Z,7.18
2022-11-09T22:44:18.015Z,6.78
2022-11-09T22:46:20.715Z,7.05
2022-11-09T22:48:23.292Z,5.30
2022-11-09T22:50:27.216Z,8.57
2022-11-09T22:52:29.853Z,5.68
2022-11-09T22:54:32.514Z,8.43
2022-11-09T22:56:35.214Z,6.30
2022-11-09T22:58:37.896Z,8.52
2022-11-09T23:00:43.541Z,11.23
2022-11-09T23:02:46.128Z,6.28
2022-11-09T23:04:48.760Z,9.25
2022-11-09T23:06:52.846Z,5.68
2022-11-09T23:08:55.636Z,7.30
2022-11-09T23:10:58.784Z,10.15
2022-11-09T23:13:02.319Z,4.57
2022-11-09T23:15:05.520Z,5.30
2022-11-09T23:17:28.210Z,8.93
2022-11-09T23:19:29.907Z,7.18
2022-11-09T23:23:37.848Z,3.40
2022-11-09T23:25:54.548Z,5.15
2022-11-09T23:27:57.477Z,2.70
2022-11-09T23:30:00.145Z,5.82
2022-11-09T23:32:02.711Z,5.18
2022-11-09T23:34:09.862Z,7.25
2022-11-09T23:36:12.885Z,4.45
2022-11-09T23:38:15.479Z,2.50
2022-11-09T23:40:19.787Z,4.22
2022-11-09T23:42:22.418Z,7.68
2022-11-09T23:44:25.025Z,4.03
2022-11-09T23:46:27.631Z,5.05
2022-11-09T23:48:30.402Z,4.18
2022-11-09T23:50:33.552Z,3.03
2022-11-09T23:52:36.237Z,4.72
2022-11-09T23:54:39.030Z,5.53
2022-11-09T23:56:42.976Z,4.63
2022-11-09T23:58:50.402Z,4.78
